createdAt,value
2022-10-01T00:01:48.019Z,12.20
2022-10-01T00:04:11.284Z,12.10
2022-10-01T00:06:34.495Z,12.10
2022-10-01T00:08:58.725Z,12.00
2022-10-01T00:11:25.884Z,12.00
2022-10-01T00:13:49.842Z,12.00
2022-10-01T00:16:16.687Z,12.00
2022-10-01T00:18:42.191Z,12.00
2022-10-01T00:21:11.988Z,12.00
2022-10-01T00:23:35.269Z,12.00
2022-10-01T00:26:09.237Z,11.80
2022-10-01T00:28:33.813Z,11.80
2022-10-01T00:30:57.081Z,11.80
2022-10-01T00:33:20.313Z,11.80
2022-10-01T00:35:43.672Z,11.60
2022-10-01T00:38:07.045Z,11.60
2022-10-01T00:40:30.938Z,11.60
2022-10-01T00:42:54.242Z,11.60
2022-10-01T00:45:19.017Z,11.50
2022-10-01T00:47:46.952Z,11.50
2022-10-01T00:50:19.535Z,11.50
2022-10-01T00:52:46.694Z,11.40
2022-10-01T00:55:16.259Z,11.40
2022-10-01T00:57:40.773Z,11.40
2022-10-01T01:00:12.205Z,11.40
2022-10-01T01:02:37.085Z,11.40
2022-10-01T01:05:01.351Z,11.30
2022-10-01T01:07:24.664Z,11.30
2022-10-01T01:09:50.667Z,11.30
2022-10-01T01:12:35.142Z,11.30
2022-10-01T01:15:12.447Z,11.30
2022-10-01T01:17:45.227Z,11.20
2022-10-01T01:20:31.125Z,11.20
2022-10-01T01:23:07.306Z,11.20
2022-10-01T01:25:40.382Z,11.20
2022-10-01T01:28:15.169Z,11.20
2022-10-01T01:30:41.333Z,11.20
2022-10-01T01:33:11.918Z,11.20
2022-10-01T01:35:41.933Z,11.20
2022-10-01T01:38:11.286Z,11.10
2022-10-01T01:40:37.422Z,11.10
2022-10-01T01:43:05.612Z,11.20
2022-10-01T01:45:33.991Z,11.20
2022-10-01T01:48:00.130Z,11.20
2022-10-01T01:50:25.510Z,11.30
2022-10-01T01:52:48.944Z,11.20
2022-10-01T01:55:12.663Z,11.30
2022-10-01T01:57:40.993Z,11.20
2022-10-01T02:00:05.034Z,11.20
2022-10-01T02:02:35.233Z,11.20
2022-10-01T02:05:02.133Z,11.20
2022-10-01T02:07:43.378Z,11.10
2022-10-01T02:10:22.733Z,11.20
2022-10-01T02:13:03.819Z,11.10
2022-10-01T02:15:36.073Z,11.10
2022-10-01T02:18:09.349Z,11.10
2022-10-01T02:20:39.855Z,11.10
2022-10-01T02:23:10.040Z,11.10
2022-10-01T02:25:38.679Z,11.10
2022-10-01T02:28:07.638Z,11.10
2022-10-01T02:30:35.543Z,11.00
2022-10-01T02:33:01.550Z,11.00
2022-10-01T02:35:24.930Z,11.00
2022-10-01T02:37:52.090Z,11.00
2022-10-01T02:40:19.900Z,11.00
2022-10-01T02:42:46.317Z,11.00
2022-10-01T02:45:12.194Z,11.00
2022-10-01T02:47:41.669Z,10.90
2022-10-01T02:50:08.831Z,11.00
2022-10-01T02:52:41.327Z,11.00
2022-10-01T02:55:10.102Z,11.00
2022-10-01T02:57:32.882Z,11.00
2022-10-01T02:59:59.801Z,11.00
2022-10-01T03:02:23.464Z,11.00
2022-10-01T03:04:48.038Z,11.00
2022-10-01T03:07:12.656Z,10.90
2022-10-01T03:09:37.727Z,11.00
2022-10-01T03:12:01.855Z,10.90
2022-10-01T03:14:25.697Z,10.90
2022-10-01T03:16:48.938Z,10.90
2022-10-01T03:19:12.181Z,10.90
2022-10-01T03:21:35.940Z,10.90
2022-10-01T03:24:00.720Z,10.80
2022-10-01T03:26:24.206Z,10.80
2022-10-01T03:28:47.464Z,10.80
2022-10-01T03:31:14.081Z,10.80
2022-10-01T03:33:37.719Z,10.80
2022-10-01T03:36:02.028Z,10.80
2022-10-01T03:38:25.264Z,10.80
2022-10-01T03:40:50.017Z,10.90
2022-10-01T03:43:13.312Z,10.90
2022-10-01T03:45:36.694Z,10.80
2022-10-01T03:47:59.943Z,10.90
2022-10-01T03:50:23.256Z,10.90
2022-10-01T03:52:47.125Z,10.80
2022-10-01T03:55:10.884Z,10.80
2022-10-01T03:57:35.510Z,10.80
2022-10-01T03:59:58.757Z,10.90
2022-10-01T04:02:22.160Z,10.90
2022-10-01T04:04:45.557Z,10.90
2022-10-01T04:07:08.747Z,10.90
2022-10-01T04:09:31.984Z,10.90
2022-10-01T04:11:55.318Z,10.90
2022-10-01T04:14:19.866Z,11.00
2022-10-01T04:16:43.421Z,10.90
2022-10-01T04:19:06.739Z,11.00
2022-10-01T04:21:30.094Z,11.00
2022-10-01T04:23:53.712Z,11.00
2022-10-01T04:26:18.711Z,11.00
2022-10-01T04:28:45.132Z,11.00
2022-10-01T04:31:34.535Z,11.00
2022-10-01T04:33:59.016Z,11.00
2022-10-01T04:36:23.688Z,11.00
2022-10-01T04:38:47.064Z,11.00
2022-10-01T04:41:10.597Z,11.00
2022-10-01T04:43:34.025Z,11.00
2022-10-01T04:45:57.359Z,11.00
2022-10-01T04:48:21.998Z,11.00
2022-10-01T04:50:45.685Z,11.10
2022-10-01T04:53:08.925Z,11.10
2022-10-01T04:55:32.166Z,11.20
2022-10-01T04:57:55.521Z,11.20
2022-10-01T05:00:21.737Z,11.10
2022-10-01T05:02:46.839Z,11.20
2022-10-01T05:05:11.682Z,11.30
2022-10-01T05:07:36.269Z,11.40
2022-10-01T05:10:00.500Z,11.50
2022-10-01T05:12:25.418Z,11.50
2022-10-01T05:14:48.697Z,11.50
2022-10-01T05:17:11.876Z,11.50
2022-10-01T05:19:35.161Z,11.50
2022-10-01T05:21:59.723Z,11.50
2022-10-01T05:24:23.896Z,11.50
2022-10-01T05:26:47.097Z,11.50
2022-10-01T05:29:10.770Z,11.50
2022-10-01T05:31:35.456Z,11.50
2022-10-01T05:33:58.895Z,11.60
2022-10-01T05:36:22.646Z,11.70
2022-10-01T05:38:49.179Z,11.70
2022-10-01T05:41:12.402Z,11.70
2022-10-01T05:43:36.305Z,11.80
2022-10-01T05:46:02.770Z,11.80
2022-10-01T05:48:26.162Z,11.80
2022-10-01T05:50:50.134Z,11.80
2022-10-01T05:53:16.029Z,12.00
2022-10-01T05:55:40.648Z,11.90
2022-10-01T05:58:06.054Z,12.00
2022-10-01T06:00:30.577Z,11.90
2022-10-01T06:02:54.523Z,11.80
2022-10-01T06:05:17.875Z,11.80
2022-10-01T06:07:41.244Z,11.90
2022-10-01T06:10:05.340Z,11.90
2022-10-01T06:12:29.984Z,11.90
2022-10-01T06:14:53.191Z,11.90
2022-10-01T06:17:16.796Z,11.90
2022-10-01T06:19:40.079Z,12.00
2022-10-01T06:22:03.279Z,12.00
2022-10-01T06:24:26.748Z,12.00
2022-10-01T06:26:50.317Z,12.10
2022-10-01T06:29:15.361Z,12.10
2022-10-01T06:31:39.160Z,12.10
2022-10-01T06:34:02.641Z,12.20
2022-10-01T06:36:26.046Z,12.20
2022-10-01T06:38:50.244Z,12.10
2022-10-01T06:41:14.115Z,12.20
2022-10-01T06:43:37.312Z,12.20
2022-10-01T06:46:05.446Z,12.20
2022-10-01T06:48:31.317Z,12.20
2022-10-01T06:50:57.238Z,12.30
2022-10-01T06:53:19.691Z,12.40
2022-10-01T06:55:43.383Z,12.40
2022-10-01T06:58:08.590Z,12.40
2022-10-01T07:00:35.410Z,12.40
2022-10-01T07:03:00.758Z,12.40
2022-10-01T07:05:24.516Z,12.50
2022-10-01T07:07:48.332Z,12.50
2022-10-01T07:10:13.400Z,12.60
2022-10-01T07:12:37.614Z,12.60
2022-10-01T07:15:01.466Z,12.60
2022-10-01T07:17:24.765Z,12.60
2022-10-01T07:19:49.521Z,12.70
2022-10-01T07:22:12.849Z,12.70
2022-10-01T07:24:36.260Z,12.50
2022-10-01T07:27:01.653Z,12.60
2022-10-01T07:29:28.444Z,12.70
2022-10-01T07:31:52.051Z,12.80
2022-10-01T07:34:15.889Z,12.60
2022-10-01T07:36:40.503Z,12.70
2022-10-01T07:39:03.901Z,12.80
2022-10-01T07:41:27.245Z,12.80
2022-10-01T07:43:50.558Z,12.80
2022-10-01T07:46:14.006Z,12.80
2022-10-01T07:48:37.484Z,12.90
2022-10-01T07:51:00.827Z,13.00
2022-10-01T07:53:27.453Z,12.90
2022-10-01T07:55:50.650Z,13.00
2022-10-01T07:58:14.321Z,13.00
2022-10-01T08:00:37.873Z,13.10
2022-10-01T08:03:01.180Z,13.10
2022-10-01T08:05:27.697Z,13.20
2022-10-01T08:07:52.118Z,13.30
2022-10-01T08:10:19.676Z,13.30
2022-10-01T08:12:43.662Z,13.30
2022-10-01T08:15:10.236Z,13.40
2022-10-01T08:17:34.830Z,13.50
2022-10-01T08:19:58.115Z,13.50
2022-10-01T08:22:21.353Z,13.50
2022-10-01T08:24:44.596Z,13.50
2022-10-01T08:27:09.723Z,13.60
2022-10-01T08:29:34.320Z,13.70
2022-10-01T08:31:58.459Z,13.80
2022-10-01T08:34:21.749Z,14.00
2022-10-01T08:36:45.588Z,13.90
2022-10-01T08:39:08.853Z,14.00
2022-10-01T08:41:45.760Z,14.00
2022-10-01T08:44:21.699Z,13.90
2022-10-01T08:46:45.717Z,14.00
2022-10-01T08:49:20.624Z,14.00
2022-10-01T08:51:53.254Z,14.00
2022-10-01T08:54:32.372Z,14.00
2022-10-01T08:56:58.175Z,14.00
2022-10-01T08:59:39.556Z,14.00
2022-10-01T09:02:02.965Z,14.00
2022-10-01T09:04:26.865Z,14.00
2022-10-01T09:07:05.036Z,14.00
2022-10-01T09:09:44.383Z,14.10
2022-10-01T09:12:30.085Z,14.00
2022-10-01T09:15:11.151Z,14.00
2022-10-01T09:17:51.366Z,13.90
2022-10-01T09:20:25.140Z,13.80
2022-10-01T09:23:04.531Z,13.80
2022-10-01T09:25:28.877Z,13.70
2022-10-01T09:27:53.726Z,13.80
2022-10-01T09:30:21.548Z,13.80
2022-10-01T09:32:49.831Z,13.90
2022-10-01T09:35:26.732Z,14.00
2022-10-01T09:37:57.869Z,14.00
2022-10-01T09:40:28.925Z,14.00
2022-10-01T09:42:53.136Z,14.00
2022-10-01T09:45:19.378Z,14.10
2022-10-01T09:47:44.974Z,14.20
2022-10-01T09:50:14.398Z,14.30
2022-10-01T09:52:40.348Z,14.30
2022-10-01T09:55:08.126Z,14.40
2022-10-01T09:57:35.892Z,14.40
2022-10-01T10:00:10.004Z,14.40
2022-10-01T10:02:46.043Z,14.50
2022-10-01T10:05:18.561Z,14.50
2022-10-01T10:07:47.103Z,14.50
2022-10-01T10:10:18.631Z,14.50
2022-10-01T10:12:44.420Z,14.60
2022-10-01T10:15:17.549Z,14.60
2022-10-01T10:17:46.459Z,14.60
2022-10-01T10:20:22.411Z,14.70
2022-10-01T10:22:45.692Z,15.10
2022-10-01T10:25:18.195Z,15.20
2022-10-01T10:27:55.448Z,15.00
2022-10-01T10:30:19.529Z,14.90
2022-10-01T10:32:47.031Z,15.00
2022-10-01T10:35:14.316Z,15.00
2022-10-01T10:37:44.446Z,15.00
2022-10-01T10:40:09.212Z,15.00
2022-10-01T10:42:33.327Z,15.10
2022-10-01T10:45:03.434Z,15.00
2022-10-01T10:47:28.394Z,15.50
2022-10-01T10:49:57.032Z,15.70
2022-10-01T10:52:24.350Z,16.00
2022-10-01T10:54:50.590Z,15.90
2022-10-01T10:57:22.195Z,15.80
2022-10-01T10:59:57.948Z,16.00
2022-10-01T11:02:22.870Z,16.10
2022-10-01T11:04:47.724Z,16.10
2022-10-01T11:07:14.697Z,16.20
2022-10-01T11:10:05.609Z,16.20
2022-10-01T11:12:47.352Z,16.30
2022-10-01T11:15:34.811Z,16.20
2022-10-01T11:18:35.992Z,16.20
2022-10-01T11:21:18.861Z,16.10
2022-10-01T11:24:07.070Z,16.00
2022-10-01T11:26:39.005Z,16.00
2022-10-01T11:29:17.516Z,16.10
2022-10-01T11:31:51.687Z,16.50
2022-10-01T11:34:39.976Z,16.80
2022-10-01T11:37:11.416Z,16.90
2022-10-01T11:39:41.513Z,16.90
2022-10-01T11:42:10.422Z,16.80
2022-10-01T11:44:40.561Z,16.70
2022-10-01T11:47:08.619Z,16.70
2022-10-01T11:49:46.649Z,16.70
2022-10-01T11:52:24.039Z,16.50
2022-10-01T11:55:20.122Z,16.50
2022-10-01T11:58:09.170Z,16.40
2022-10-01T12:00:32.850Z,16.50
2022-10-01T12:03:00.738Z,16.50
2022-10-01T12:05:29.391Z,16.40
2022-10-01T12:07:58.836Z,16.40
2022-10-01T12:10:38.693Z,16.40
2022-10-01T12:13:11.440Z,16.20
2022-10-01T12:15:49.315Z,16.10
2022-10-01T12:18:20.188Z,16.00
2022-10-01T12:20:48.753Z,15.90
2022-10-01T12:23:17.884Z,16.00
2022-10-01T12:25:54.488Z,15.60
2022-10-01T12:28:23.229Z,15.60
2022-10-01T12:30:56.994Z,16.00
2022-10-01T12:33:56.353Z,16.20
2022-10-01T12:36:27.344Z,16.50
2022-10-01T12:39:09.391Z,16.40
2022-10-01T12:41:50.942Z,16.20
2022-10-01T12:44:51.537Z,16.20
2022-10-01T12:47:29.245Z,16.50
2022-10-01T12:50:01.750Z,16.60
2022-10-01T12:52:36.804Z,16.50
2022-10-01T12:55:34.291Z,16.40
2022-10-01T12:58:08.175Z,16.40
2022-10-01T13:00:40.619Z,16.50
2022-10-01T13:03:36.865Z,16.80
2022-10-01T13:06:16.591Z,17.00
2022-10-01T13:09:06.356Z,17.00
2022-10-01T13:11:52.936Z,17.00
2022-10-01T13:14:19.166Z,17.00
2022-10-01T13:16:49.216Z,17.00
2022-10-01T13:19:24.833Z,17.10
2022-10-01T13:22:01.531Z,17.20
2022-10-01T13:24:33.806Z,17.20
2022-10-01T13:27:04.617Z,17.20
2022-10-01T13:29:48.352Z,17.20
2022-10-01T13:32:32.263Z,17.10
2022-10-01T13:34:56.338Z,16.40
2022-10-01T13:37:32.949Z,16.00
2022-10-01T13:39:56.631Z,16.00
2022-10-01T13:42:26.089Z,15.90
2022-10-01T13:44:56.681Z,16.00
2022-10-01T13:47:21.486Z,15.90
2022-10-01T13:49:45.840Z,16.00
2022-10-01T13:52:20.552Z,16.20
2022-10-01T13:54:48.976Z,16.20
2022-10-01T13:57:34.173Z,16.20
2022-10-01T14:00:07.642Z,16.40
2022-10-01T14:02:37.254Z,16.70
2022-10-01T14:05:28.270Z,17.10
2022-10-01T14:07:58.977Z,17.00
2022-10-01T14:10:24.242Z,17.00
2022-10-01T14:13:06.092Z,17.10
2022-10-01T14:15:57.860Z,17.20
2022-10-01T14:18:24.945Z,17.20
2022-10-01T14:21:03.056Z,17.00
2022-10-01T14:23:36.250Z,16.70
2022-10-01T14:26:07.678Z,16.70
2022-10-01T14:28:48.985Z,16.80
2022-10-01T14:31:24.410Z,16.80
2022-10-01T14:34:33.633Z,16.90
2022-10-01T14:36:57.896Z,17.10
2022-10-01T14:39:24.510Z,17.40
2022-10-01T14:41:49.722Z,17.20
2022-10-01T14:44:26.839Z,17.30
2022-10-01T14:46:52.122Z,17.10
2022-10-01T14:49:22.781Z,17.30
2022-10-01T14:51:52.436Z,17.20
2022-10-01T14:54:15.748Z,17.20
2022-10-01T14:56:43.612Z,17.20
2022-10-01T14:59:18.408Z,17.30
2022-10-01T15:01:41.661Z,17.10
2022-10-01T15:04:15.655Z,17.20
2022-10-01T15:06:44.136Z,17.20
2022-10-01T15:09:15.486Z,17.10
2022-10-01T15:11:44.491Z,17.00
2022-10-01T15:14:16.330Z,16.80
2022-10-01T15:16:39.913Z,16.80
2022-10-01T15:19:08.552Z,16.80
2022-10-01T15:21:37.828Z,16.90
2022-10-01T15:24:04.187Z,17.00
2022-10-01T15:26:29.807Z,17.00
2022-10-01T15:29:07.331Z,17.00
2022-10-01T15:31:31.008Z,17.00
2022-10-01T15:33:54.424Z,17.00
2022-10-01T15:36:20.284Z,17.00
2022-10-01T15:38:45.205Z,16.90
2022-10-01T15:41:30.641Z,17.00
2022-10-01T15:43:52.858Z,16.90
2022-10-01T15:46:33.104Z,16.80
2022-10-01T15:49:19.257Z,16.90
2022-10-01T15:52:12.196Z,16.90
2022-10-01T15:54:36.428Z,16.90
2022-10-01T15:56:59.676Z,16.80
2022-10-01T15:59:22.981Z,16.70
2022-10-01T16:01:46.388Z,16.70
2022-10-01T16:04:12.947Z,16.90
2022-10-01T16:06:40.389Z,16.90
2022-10-01T16:09:09.078Z,17.00
2022-10-01T16:11:33.282Z,17.00
2022-10-01T16:14:23.163Z,17.00
2022-10-01T16:16:46.950Z,17.10
2022-10-01T16:19:24.874Z,17.00
2022-10-01T16:22:17.154Z,17.00
2022-10-01T16:24:47.138Z,17.00
2022-10-01T16:27:17.362Z,17.20
2022-10-01T16:29:41.345Z,16.90
2022-10-01T16:32:04.598Z,16.80
2022-10-01T16:34:28.268Z,16.70
2022-10-01T16:36:51.623Z,16.50
2022-10-01T16:39:15.619Z,16.40
2022-10-01T16:41:40.851Z,16.20
2022-10-01T16:44:06.099Z,16.20
2022-10-01T16:46:29.668Z,16.40
2022-10-01T16:48:53.009Z,16.30
2022-10-01T16:51:16.276Z,16.10
2022-10-01T16:53:42.713Z,16.00
2022-10-01T16:56:06.253Z,15.90
2022-10-01T16:58:30.807Z,15.90
2022-10-01T17:00:54.198Z,16.00
2022-10-01T17:03:20.452Z,15.80
2022-10-01T17:05:43.970Z,15.90
2022-10-01T17:08:11.214Z,15.90
2022-10-01T17:10:40.739Z,15.60
2022-10-01T17:13:04.675Z,15.70
2022-10-01T17:15:29.688Z,15.70
2022-10-01T17:17:53.081Z,15.50
2022-10-01T17:20:17.522Z,15.60
2022-10-01T17:22:42.743Z,15.50
2022-10-01T17:25:07.039Z,15.40
2022-10-01T17:27:30.340Z,15.30
2022-10-01T17:29:54.191Z,15.20
2022-10-01T17:32:19.052Z,15.10
2022-10-01T17:34:42.635Z,15.00
2022-10-01T17:37:05.845Z,14.80
2022-10-01T17:39:29.113Z,15.00
2022-10-01T17:41:52.459Z,15.20
2022-10-01T17:44:16.023Z,15.00
2022-10-01T17:46:39.432Z,14.90
2022-10-01T17:49:04.015Z,15.00
2022-10-01T17:51:27.243Z,15.00
2022-10-01T17:53:50.527Z,15.00
2022-10-01T17:56:16.394Z,15.00
2022-10-01T17:58:44.300Z,14.90
2022-10-01T18:01:10.454Z,14.90
2022-10-01T18:03:33.768Z,14.80
2022-10-01T18:06:04.022Z,14.80
2022-10-01T18:08:44.674Z,14.80
2022-10-01T18:11:12.712Z,14.70
2022-10-01T18:13:36.850Z,14.80
2022-10-01T18:16:06.081Z,14.60
2022-10-01T18:21:15.830Z,14.30
2022-10-01T18:23:39.054Z,14.30
2022-10-01T18:26:02.258Z,14.40
2022-10-01T18:28:26.950Z,14.50
2022-10-01T18:30:51.797Z,14.50
2022-10-01T18:33:15.101Z,14.40
2022-10-01T18:35:38.418Z,14.40
2022-10-01T18:38:07.905Z,14.40
2022-10-01T18:40:36.018Z,14.30
2022-10-01T18:43:05.579Z,14.20
2022-10-01T18:45:45.495Z,14.10
2022-10-01T18:48:36.122Z,14.20
2022-10-01T18:51:07.697Z,14.20
2022-10-01T18:53:51.417Z,13.90
2022-10-01T18:56:32.007Z,13.70
2022-10-01T18:59:51.718Z,13.70
2022-10-01T19:02:52.168Z,13.80
2022-10-01T19:05:49.636Z,13.60
2022-10-01T19:08:27.476Z,13.50
2022-10-01T19:11:02.722Z,13.30
2022-10-01T19:13:36.167Z,13.30
2022-10-01T19:16:14.035Z,13.20
2022-10-01T19:18:56.707Z,13.10
2022-10-01T19:21:28.850Z,13.20
2022-10-01T19:24:38.916Z,13.20
2022-10-01T19:27:21.039Z,13.10
2022-10-01T19:29:57.551Z,13.00
2022-10-01T19:32:24.688Z,13.00
2022-10-01T19:34:53.371Z,13.00
2022-10-01T19:37:31.112Z,13.00
2022-10-01T19:40:02.067Z,12.80
2022-10-01T19:42:33.058Z,12.80
2022-10-01T19:45:04.517Z,12.70
2022-10-01T19:47:41.250Z,12.70
2022-10-01T19:50:20.497Z,12.60
2022-10-01T19:52:46.034Z,12.60
2022-10-01T19:55:16.407Z,12.50
2022-10-01T19:57:43.584Z,12.50
2022-10-01T20:00:17.519Z,12.50
2022-10-01T20:02:51.015Z,12.50
2022-10-01T20:05:18.735Z,12.50
2022-10-01T20:07:49.828Z,12.40
2022-10-01T20:10:26.057Z,12.30
2022-10-01T20:13:08.017Z,12.40
2022-10-01T20:15:41.427Z,12.60
2022-10-01T20:18:19.182Z,12.50
2022-10-01T20:20:58.013Z,12.40
2022-10-01T20:23:41.022Z,12.50
2022-10-01T20:26:17.475Z,12.50
2022-10-01T20:28:56.252Z,12.40
2022-10-01T20:31:25.962Z,12.40
2022-10-01T20:34:00.073Z,12.40
2022-10-01T20:36:31.731Z,12.30
2022-10-01T20:39:05.562Z,12.30
2022-10-01T20:41:31.415Z,12.20
2022-10-01T20:44:00.331Z,12.20
2022-10-01T20:46:32.298Z,12.20
2022-10-01T20:49:04.066Z,12.20
2022-10-01T20:51:37.255Z,12.00
2022-10-01T20:54:08.313Z,12.20
2022-10-01T20:56:37.348Z,12.10
2022-10-01T20:59:07.663Z,12.10
2022-10-01T21:01:37.385Z,12.00
2022-10-01T21:04:07.333Z,12.00
2022-10-01T21:06:36.970Z,12.00
2022-10-01T21:09:05.245Z,12.00
2022-10-01T21:11:34.718Z,12.00
2022-10-01T21:14:07.227Z,12.00
2022-10-01T21:17:03.438Z,11.90
2022-10-01T21:20:05.922Z,11.90
2022-10-01T21:22:46.118Z,11.90
2022-10-01T21:25:21.294Z,11.90
2022-10-01T21:28:05.621Z,11.80
2022-10-01T21:30:42.187Z,11.80
2022-10-01T21:33:15.238Z,11.80
2022-10-01T21:35:49.970Z,11.80
2022-10-01T21:38:27.974Z,11.80
2022-10-01T21:41:15.598Z,11.80
2022-10-01T21:43:59.097Z,11.80
2022-10-01T21:46:32.399Z,11.80
2022-10-01T21:49:03.064Z,11.70
2022-10-01T21:51:48.710Z,11.70
2022-10-01T21:54:51.752Z,11.70
2022-10-01T21:57:33.323Z,11.70
2022-10-01T22:00:26.355Z,11.70
2022-10-01T22:03:11.866Z,11.60
2022-10-01T22:05:43.232Z,11.60
2022-10-01T22:08:23.248Z,11.50
2022-10-01T22:10:50.129Z,11.50
2022-10-01T22:13:17.683Z,11.50
2022-10-01T22:15:44.981Z,11.50
2022-10-01T22:18:19.771Z,11.50
2022-10-01T22:20:45.102Z,11.50
2022-10-01T22:23:12.209Z,11.50
2022-10-01T22:25:42.029Z,11.50
2022-10-01T22:28:10.749Z,11.50
2022-10-01T22:30:38.538Z,11.50
2022-10-01T22:33:09.769Z,11.50
2022-10-01T22:35:40.837Z,11.50
2022-10-01T22:38:13.725Z,11.60
2022-10-01T22:40:45.015Z,11.60
2022-10-01T22:43:11.986Z,11.70
2022-10-01T22:45:50.891Z,11.90
2022-10-01T22:48:41.803Z,12.10
2022-10-01T22:51:21.071Z,12.00
2022-10-01T22:53:59.553Z,12.00
2022-10-01T22:56:32.306Z,12.00
2022-10-01T22:59:11.958Z,11.80
2022-10-01T23:01:48.004Z,11.80
2022-10-01T23:04:28.803Z,11.80
2022-10-01T23:07:03.181Z,11.90
2022-10-01T23:09:34.841Z,12.30
2022-10-01T23:12:04.313Z,12.20
2022-10-01T23:14:47.054Z,12.10
2022-10-01T23:17:17.474Z,12.00
2022-10-01T23:19:53.791Z,11.90
2022-10-01T23:22:36.036Z,11.90
2022-10-01T23:25:16.622Z,11.90
2022-10-01T23:27:53.988Z,11.90
2022-10-01T23:30:19.450Z,12.10
2022-10-01T23:33:12.624Z,12.10
2022-10-01T23:35:49.735Z,12.40
2022-10-01T23:38:40.735Z,12.60
2022-10-01T23:41:14.152Z,12.80
2022-10-01T23:43:42.987Z,12.70
2022-10-01T23:46:12.253Z,12.90
2022-10-01T23:48:42.240Z,12.80
2022-10-01T23:51:12.243Z,12.80
2022-10-01T23:53:42.101Z,13.00
2022-10-01T23:56:27.967Z,13.00
2022-10-01T23:58:58.615Z,13.10
